Ponca, Arkansas
Current Conditions -  °F | °C
As of 7:53 PM on Wednesday 26 Nov 2014 (Local Time) from KHRO Reporting Station
Clear Clear  
Wind Chill: -1°   Ceiling: Unl
Heat Index:   Visibility: 10mi
Dew Point: -3°   Wind: 15mph
Humidity: 60%   Direction: 300°WNW
Pressure: 30.18"   Gusts: 28mph
Location:  36.02°N, 93.37°W
Report Text: KHRO 270153Z AUTO 30013G24KT 10SM CLR 04/M03 A3018 RMK AO2 SLP223 T00391033
Loading
Personal Weather Stations






























Interactive Weather Map New forecast layout! Learn more

10-Day Weather Forecast

Advertisements
Track Severe Weather on mobile